createdAt,value
2022-12-11T00:01:36.390Z,18.72
2022-12-11T00:04:02.650Z,19.56
2022-12-11T00:06:28.899Z,20.83
2022-12-11T00:08:55.146Z,19.91
2022-12-11T00:11:21.413Z,19.42
2022-12-11T00:13:47.679Z,19.98
2022-12-11T00:16:13.966Z,20.36
2022-12-11T00:18:40.261Z,19.18
2022-12-11T00:21:06.535Z,18.90
2022-12-11T00:23:32.799Z,19.18
2022-12-11T00:25:59.064Z,19.19
2022-12-11T00:28:25.313Z,18.81
2022-12-11T00:30:51.578Z,19.06
2022-12-11T00:33:17.889Z,18.85
2022-12-11T00:35:44.131Z,18.92
2022-12-11T00:38:10.393Z,18.98
2022-12-11T00:40:36.657Z,19.37
2022-12-11T00:43:02.902Z,19.04
2022-12-11T00:45:29.177Z,18.65
2022-12-11T00:47:55.423Z,18.75
2022-12-11T00:50:21.697Z,18.48
2022-12-11T00:52:48.044Z,18.37
2022-12-11T00:55:14.296Z,18.94
2022-12-11T00:57:40.565Z,18.53
2022-12-11T01:00:06.830Z,18.61
2022-12-11T01:02:33.122Z,18.43
2022-12-11T01:04:59.410Z,18.81
2022-12-11T01:07:25.649Z,18.95
2022-12-11T01:09:51.904Z,18.76
2022-12-11T01:12:18.175Z,18.83
2022-12-11T01:14:44.414Z,18.33
2022-12-11T01:17:10.677Z,18.74
2022-12-11T01:19:36.918Z,19.02
2022-12-11T01:22:03.178Z,19.21
2022-12-11T01:24:29.458Z,18.80
2022-12-11T01:26:55.693Z,18.86
2022-12-11T01:29:21.933Z,18.52
2022-12-11T01:31:48.207Z,18.61
2022-12-11T01:34:14.458Z,18.53
2022-12-11T01:36:40.773Z,19.26
2022-12-11T01:39:07.041Z,19.18
2022-12-11T01:41:33.286Z,19.20
2022-12-11T01:43:59.534Z,18.71
2022-12-11T01:46:25.837Z,19.10
2022-12-11T01:48:52.170Z,19.41
2022-12-11T01:51:18.425Z,18.88
2022-12-11T01:53:44.689Z,19.03
2022-12-11T01:56:11.000Z,19.20
2022-12-11T01:58:37.276Z,19.13
2022-12-11T02:01:03.559Z,19.32
2022-12-11T02:03:29.874Z,19.56
2022-12-11T02:05:56.122Z,19.64
2022-12-11T02:08:22.439Z,19.46
2022-12-11T02:10:48.730Z,19.46
2022-12-11T02:13:15.018Z,18.96
2022-12-11T02:15:41.253Z,18.97
2022-12-11T02:18:07.491Z,18.87
2022-12-11T02:20:33.752Z,18.87
2022-12-11T02:23:00.016Z,19.02
2022-12-11T02:25:26.273Z,18.68
2022-12-11T02:27:52.550Z,18.86
2022-12-11T02:30:18.808Z,19.07
2022-12-11T02:32:45.072Z,19.08
2022-12-11T02:35:11.619Z,18.86
2022-12-11T02:37:37.977Z,19.16
2022-12-11T02:40:04.227Z,18.96
2022-12-11T02:42:30.494Z,19.55
2022-12-11T02:44:56.773Z,19.79
2022-12-11T02:47:23.013Z,20.14
2022-12-11T02:49:49.272Z,19.32
2022-12-11T02:52:15.546Z,19.99
2022-12-11T02:54:41.811Z,19.23
2022-12-11T02:57:08.082Z,19.00
2022-12-11T02:59:34.347Z,19.79
2022-12-11T03:02:00.645Z,19.13
2022-12-11T03:04:26.968Z,19.03
2022-12-11T03:06:53.231Z,19.29
2022-12-11T03:09:19.498Z,19.33
2022-12-11T03:11:45.747Z,19.77
2022-12-11T03:14:12.006Z,19.94
2022-12-11T03:16:38.316Z,19.87
2022-12-11T03:19:04.650Z,19.74
2022-12-11T03:21:30.892Z,19.57
2022-12-11T03:23:57.135Z,19.49
2022-12-11T03:26:23.393Z,19.16
2022-12-11T03:28:49.657Z,19.00
2022-12-11T03:31:15.960Z,19.52
2022-12-11T03:33:42.256Z,19.14
2022-12-11T03:36:08.522Z,19.12
2022-12-11T03:38:34.772Z,18.75
2022-12-11T03:41:01.023Z,18.39
2022-12-11T03:43:27.268Z,19.03
2022-12-11T03:45:53.544Z,19.77
2022-12-11T03:48:19.829Z,18.92
2022-12-11T03:50:46.096Z,18.97
2022-12-11T03:53:12.365Z,19.50
2022-12-11T03:55:38.628Z,20.15
2022-12-11T03:58:04.878Z,19.84
2022-12-11T04:00:31.242Z,19.76
2022-12-11T04:02:57.487Z,20.35
2022-12-11T04:05:23.762Z,20.90
2022-12-11T04:07:50.139Z,20.31
2022-12-11T04:10:16.412Z,19.91
2022-12-11T04:12:42.675Z,20.34
2022-12-11T04:15:09.323Z,20.49
2022-12-11T04:17:35.741Z,19.96
2022-12-11T04:20:02.009Z,20.64
2022-12-11T04:22:28.257Z,20.45
2022-12-11T04:24:54.513Z,20.59
2022-12-11T04:27:20.780Z,20.38
2022-12-11T04:29:47.064Z,19.81
2022-12-11T04:32:13.369Z,20.48
2022-12-11T04:34:39.629Z,20.62
2022-12-11T04:37:05.887Z,19.87
2022-12-11T04:39:32.161Z,20.30
2022-12-11T04:41:58.418Z,20.42
2022-12-11T04:44:24.682Z,20.17
2022-12-11T04:46:50.992Z,19.14
2022-12-11T04:49:17.298Z,19.88
2022-12-11T04:51:43.546Z,19.84
2022-12-11T04:54:09.781Z,19.76
2022-12-11T04:56:36.041Z,19.57
2022-12-11T04:59:02.300Z,19.38
2022-12-11T05:01:28.699Z,19.48
2022-12-11T05:03:54.977Z,19.27
2022-12-11T05:06:21.229Z,19.41
2022-12-11T05:08:47.492Z,19.51
2022-12-11T05:11:13.735Z,19.58
2022-12-11T05:13:39.997Z,19.24
2022-12-11T05:16:06.318Z,18.94
2022-12-11T05:18:32.606Z,18.59
2022-12-11T05:20:58.881Z,18.90
2022-12-11T05:23:25.149Z,18.63
2022-12-11T05:25:51.393Z,19.65
2022-12-11T05:28:17.635Z,18.46
2022-12-11T05:30:43.907Z,18.37
2022-12-11T05:33:10.231Z,18.28
2022-12-11T05:35:36.493Z,18.49
2022-12-11T05:38:02.738Z,18.17
2022-12-11T05:40:29.001Z,17.92
2022-12-11T05:42:55.274Z,18.06
2022-12-11T05:45:21.541Z,17.77
2022-12-11T05:47:47.823Z,17.96
2022-12-11T05:50:14.096Z,18.34
2022-12-11T05:52:40.365Z,20.17
2022-12-11T05:55:06.614Z,18.94
2022-12-11T05:57:32.881Z,18.75
2022-12-11T05:59:59.140Z,18.13
2022-12-11T06:02:25.461Z,19.26
2022-12-11T06:04:51.823Z,17.73
2022-12-11T06:07:18.080Z,18.07
2022-12-11T06:09:44.344Z,18.77
2022-12-11T06:12:10.600Z,18.64
2022-12-11T06:14:36.865Z,18.00
2022-12-11T06:17:03.103Z,18.21
2022-12-11T06:19:33.473Z,17.71
2022-12-11T06:22:02.938Z,18.14
2022-12-11T06:24:29.181Z,17.31
2022-12-11T06:26:55.466Z,16.60
2022-12-11T06:29:21.721Z,15.95
2022-12-11T06:31:48.045Z,16.67
2022-12-11T06:34:14.355Z,16.75
2022-12-11T06:36:40.618Z,16.24
2022-12-11T06:39:06.881Z,16.13
2022-12-11T06:41:33.148Z,15.45
2022-12-11T06:43:59.390Z,15.21
2022-12-11T06:46:25.710Z,15.74
2022-12-11T06:48:52.057Z,16.29
2022-12-11T06:51:18.345Z,17.26
2022-12-11T06:53:44.613Z,16.94
2022-12-11T06:56:10.882Z,16.84
2022-12-11T06:58:37.145Z,16.57
2022-12-11T07:01:03.408Z,16.65
2022-12-11T07:03:29.702Z,15.79
2022-12-11T07:05:55.977Z,15.72
2022-12-11T07:08:22.244Z,15.54
2022-12-11T07:10:48.519Z,15.15
2022-12-11T07:13:14.786Z,14.21
2022-12-11T07:15:41.028Z,14.63
2022-12-11T07:18:07.298Z,14.76
2022-12-11T07:20:33.561Z,15.21
2022-12-11T07:22:59.799Z,14.62
2022-12-11T07:25:26.138Z,15.30
2022-12-11T07:27:52.375Z,14.73
2022-12-11T07:30:18.621Z,15.08
2022-12-11T07:32:44.901Z,17.55
2022-12-11T07:35:11.438Z,15.45
2022-12-11T07:37:37.951Z,14.66
2022-12-11T07:40:04.189Z,14.46
2022-12-11T07:42:30.435Z,14.23
2022-12-11T07:44:56.696Z,14.38
2022-12-11T07:47:22.938Z,14.46
2022-12-11T07:49:49.177Z,14.00
2022-12-11T07:52:15.444Z,13.26
2022-12-11T07:54:41.692Z,13.40
2022-12-11T07:57:13.946Z,13.19
2022-12-11T07:59:40.513Z,12.58
2022-12-11T08:02:06.785Z,12.53
2022-12-11T08:04:33.069Z,12.41
2022-12-11T08:06:59.324Z,12.58
2022-12-11T08:09:25.588Z,12.98
2022-12-11T08:11:51.895Z,13.31
2022-12-11T08:14:18.184Z,12.48
2022-12-11T08:16:44.459Z,12.48
2022-12-11T08:19:10.924Z,12.43
2022-12-11T08:21:37.166Z,12.11
2022-12-11T08:24:03.405Z,12.68
2022-12-11T08:26:29.653Z,11.72
2022-12-11T08:28:55.897Z,11.67
2022-12-11T08:31:22.184Z,11.22
2022-12-11T08:33:48.455Z,11.91
2022-12-11T08:36:14.713Z,11.93
2022-12-11T08:38:40.970Z,11.72
2022-12-11T08:41:07.203Z,12.44
2022-12-11T08:43:33.459Z,12.87
2022-12-11T08:45:59.788Z,13.50
2022-12-11T08:48:26.109Z,13.22
2022-12-11T08:50:52.351Z,12.59
2022-12-11T08:53:18.605Z,12.39
2022-12-11T08:55:44.867Z,13.41
2022-12-11T08:58:11.119Z,12.90
2022-12-11T09:00:37.383Z,12.30
2022-12-11T09:03:05.338Z,12.57
2022-12-11T09:05:34.700Z,12.67
2022-12-11T09:08:01.203Z,13.06
2022-12-11T09:10:27.593Z,12.86
2022-12-11T09:12:53.861Z,13.06
2022-12-11T09:15:20.125Z,13.15
2022-12-11T09:17:46.389Z,13.28
2022-12-11T09:20:12.639Z,12.83
2022-12-11T09:22:38.877Z,12.46
2022-12-11T09:25:05.128Z,12.17
2022-12-11T09:27:31.408Z,12.06
2022-12-11T09:29:57.654Z,12.40
2022-12-11T09:32:23.889Z,12.22
2022-12-11T09:34:50.158Z,12.89
2022-12-11T09:37:16.424Z,13.07
2022-12-11T09:39:42.665Z,12.23
2022-12-11T09:42:08.921Z,12.99
2022-12-11T09:44:35.176Z,13.75
2022-12-11T09:47:01.435Z,14.06
2022-12-11T09:49:27.685Z,14.04
2022-12-11T09:51:53.940Z,14.92
2022-12-11T09:54:20.189Z,13.42
2022-12-11T09:56:46.434Z,13.63
2022-12-11T09:59:12.676Z,14.81
2022-12-11T10:01:38.978Z,14.40
2022-12-11T10:04:05.245Z,14.17
2022-12-11T10:06:31.513Z,19.10
2022-12-11T10:08:57.775Z,16.94
2022-12-11T10:11:24.025Z,19.51
2022-12-11T10:13:50.280Z,17.00
2022-12-11T10:16:16.594Z,13.92
2022-12-11T10:18:42.897Z,15.02
2022-12-11T10:21:09.165Z,14.99
2022-12-11T10:23:35.437Z,19.27
2022-12-11T10:26:01.725Z,16.03
2022-12-11T10:28:27.972Z,17.86
2022-12-11T10:30:54.240Z,15.76
2022-12-11T10:33:20.558Z,15.46
2022-12-11T10:35:46.826Z,14.70
2022-12-11T10:38:13.073Z,15.35
2022-12-11T10:40:39.343Z,14.58
2022-12-11T10:43:05.586Z,14.42
2022-12-11T10:45:31.839Z,17.92
2022-12-11T10:47:58.083Z,16.11
2022-12-11T10:50:24.336Z,15.00
2022-12-11T10:52:50.582Z,14.80
2022-12-11T10:55:16.853Z,15.15
2022-12-11T10:57:43.094Z,15.76
2022-12-11T11:00:09.340Z,15.85
2022-12-11T11:02:35.631Z,17.10
2022-12-11T11:05:01.940Z,16.58
2022-12-11T11:07:28.187Z,15.77
2022-12-11T11:09:54.445Z,16.37
2022-12-11T11:12:20.690Z,15.33
2022-12-11T11:14:46.934Z,14.56
2022-12-11T11:17:13.199Z,13.99
2022-12-11T11:19:39.447Z,14.75
2022-12-11T11:22:05.693Z,14.59
2022-12-11T11:24:31.938Z,14.39
2022-12-11T11:27:13.161Z,14.51
2022-12-11T11:29:39.878Z,14.81
2022-12-11T11:32:06.123Z,16.13
2022-12-11T11:34:32.381Z,14.17
2022-12-11T11:36:58.638Z,14.71
2022-12-11T11:39:24.888Z,18.41
2022-12-11T11:41:51.158Z,16.05
2022-12-11T11:44:17.405Z,16.75
2022-12-11T11:46:43.682Z,19.84
2022-12-11T11:49:09.977Z,16.38
2022-12-11T11:51:36.212Z,14.08
2022-12-11T11:54:02.467Z,14.92
2022-12-11T11:56:28.712Z,15.23
2022-12-11T11:58:54.947Z,15.20
2022-12-11T12:01:21.207Z,15.25
2022-12-11T12:03:47.468Z,15.42
2022-12-11T12:06:15.371Z,16.00
2022-12-11T12:08:41.753Z,15.44
2022-12-11T12:11:08.008Z,14.53
2022-12-11T12:13:50.459Z,14.36
2022-12-11T12:16:50.529Z,15.22
2022-12-11T12:19:03.277Z,16.12
2022-12-11T12:21:29.536Z,18.49
2022-12-11T12:23:55.789Z,16.05
2022-12-11T12:26:22.045Z,17.01
2022-12-11T12:28:48.334Z,15.77
2022-12-11T12:31:14.619Z,14.96
2022-12-11T12:33:40.877Z,15.24
2022-12-11T12:36:07.473Z,15.24
2022-12-11T12:38:33.805Z,14.94
2022-12-11T12:41:00.046Z,16.12
2022-12-11T12:43:26.277Z,15.16
2022-12-11T12:45:52.665Z,15.41
2022-12-11T12:48:18.962Z,17.10
2022-12-11T12:50:45.206Z,15.93
2022-12-11T12:53:11.446Z,14.33
2022-12-11T12:55:37.701Z,14.64
2022-12-11T12:58:03.961Z,15.69
2022-12-11T13:00:30.216Z,15.83
2022-12-11T13:02:56.453Z,16.05
2022-12-11T13:05:22.691Z,15.28
2022-12-11T13:07:54.001Z,16.18
2022-12-11T13:10:20.748Z,15.83
2022-12-11T13:12:47.009Z,15.75
2022-12-11T13:15:13.447Z,14.18
2022-12-11T13:17:39.817Z,14.53
2022-12-11T13:20:06.052Z,14.09
2022-12-11T13:22:32.312Z,13.91
2022-12-11T13:24:58.570Z,14.15
2022-12-11T13:27:24.833Z,13.96
2022-12-11T13:29:51.070Z,14.68
2022-12-11T13:32:17.308Z,14.23
2022-12-11T13:34:43.593Z,14.87
2022-12-11T13:37:09.834Z,15.18
2022-12-11T13:39:36.071Z,15.21
2022-12-11T13:42:02.345Z,15.13
2022-12-11T13:44:28.591Z,15.40
2022-12-11T13:46:54.841Z,14.46
2022-12-11T13:49:21.086Z,14.95
2022-12-11T13:51:47.332Z,14.39
2022-12-11T13:54:16.642Z,14.74
2022-12-11T13:56:43.661Z,15.33
2022-12-11T13:59:09.916Z,15.80
2022-12-11T14:01:36.191Z,16.86
2022-12-11T14:04:02.467Z,21.97
2022-12-11T14:06:28.728Z,17.02
2022-12-11T14:08:54.993Z,17.22
2022-12-11T14:11:21.244Z,17.27
2022-12-11T14:13:47.487Z,16.68
2022-12-11T14:16:13.771Z,16.85
2022-12-11T14:18:40.026Z,16.66
2022-12-11T14:21:06.260Z,16.99
2022-12-11T14:23:32.525Z,16.74
2022-12-11T14:25:58.796Z,16.30
2022-12-11T14:28:25.064Z,15.01
2022-12-11T14:30:51.328Z,15.74
2022-12-11T14:33:17.579Z,15.59
2022-12-11T14:35:43.860Z,15.17
2022-12-11T14:38:10.123Z,15.04
2022-12-11T14:40:36.370Z,15.10
2022-12-11T14:43:02.614Z,14.36
2022-12-11T14:45:28.918Z,14.60
2022-12-11T14:47:55.208Z,14.61
2022-12-11T14:50:21.468Z,15.08
2022-12-11T14:52:47.715Z,18.40
2022-12-11T14:55:13.977Z,17.07
2022-12-11T14:57:40.232Z,17.26
2022-12-11T15:00:06.479Z,16.34
2022-12-11T15:02:32.771Z,17.44
2022-12-11T15:04:59.054Z,17.08
2022-12-11T15:07:25.310Z,16.24
2022-12-11T15:09:51.549Z,18.53
2022-12-11T15:12:17.804Z,16.87
2022-12-11T15:14:44.050Z,18.77
2022-12-11T15:17:10.318Z,20.76
2022-12-11T15:19:36.573Z,21.19
2022-12-11T15:22:02.822Z,18.08
2022-12-11T15:24:29.085Z,18.18
2022-12-11T15:26:55.334Z,18.74
2022-12-11T15:29:21.589Z,20.36
2022-12-11T15:31:47.861Z,18.26
2022-12-11T15:34:14.105Z,20.62
2022-12-11T15:36:40.345Z,21.09
2022-12-11T15:39:06.604Z,19.04
2022-12-11T15:41:32.867Z,18.37
2022-12-11T15:43:59.454Z,22.64
2022-12-11T15:46:25.812Z,21.14
2022-12-11T15:48:52.102Z,19.01
2022-12-11T15:51:18.353Z,19.31
2022-12-11T15:53:44.609Z,18.47
2022-12-11T15:56:10.873Z,20.09
2022-12-11T15:58:37.125Z,20.76
2022-12-11T16:01:03.441Z,20.76
2022-12-11T16:03:29.685Z,20.38
2022-12-11T16:05:55.942Z,20.32
2022-12-11T16:08:22.311Z,19.26
2022-12-11T16:10:48.601Z,20.98
2022-12-11T16:13:14.865Z,23.10
2022-12-11T16:15:41.146Z,27.51
2022-12-11T16:18:07.434Z,22.57
2022-12-11T16:20:33.700Z,23.08
2022-12-11T16:22:59.936Z,23.56
2022-12-11T16:25:26.197Z,22.79
2022-12-11T16:27:52.438Z,19.78
2022-12-11T16:30:18.693Z,21.21
2022-12-11T16:32:45.049Z,20.41
2022-12-11T16:35:11.514Z,20.96
2022-12-11T16:37:37.879Z,19.57
2022-12-11T16:40:04.153Z,18.78
2022-12-11T16:42:30.413Z,17.83
2022-12-11T16:44:56.658Z,18.71
2022-12-11T16:47:22.920Z,18.46
2022-12-11T16:49:49.188Z,18.65
2022-12-11T16:52:20.535Z,18.11
2022-12-11T16:54:48.445Z,17.59
2022-12-11T16:57:14.701Z,17.53
2022-12-11T16:59:40.969Z,17.88
2022-12-11T17:02:07.316Z,17.27
2022-12-11T17:04:33.598Z,17.75
2022-12-11T17:06:59.873Z,18.25
2022-12-11T17:09:26.120Z,18.63
2022-12-11T17:11:52.377Z,18.87
2022-12-11T17:14:18.634Z,20.21
2022-12-11T17:16:44.878Z,20.23
2022-12-11T17:19:11.139Z,21.68
2022-12-11T17:21:37.382Z,23.33
2022-12-11T17:24:03.649Z,23.32
2022-12-11T17:26:29.905Z,22.61
2022-12-11T17:28:56.155Z,23.08
2022-12-11T17:31:22.528Z,29.83
2022-12-11T17:33:48.842Z,39.63
2022-12-11T17:36:15.124Z,41.26
2022-12-11T17:38:41.367Z,43.60
2022-12-11T17:41:07.615Z,39.86
2022-12-11T17:43:33.873Z,32.22
2022-12-11T17:46:00.194Z,25.08
2022-12-11T17:48:26.548Z,23.47
2022-12-11T17:50:52.822Z,23.06
2022-12-11T17:53:19.086Z,23.46
2022-12-11T17:55:45.376Z,23.36
2022-12-11T17:58:11.650Z,23.49
2022-12-11T18:00:37.910Z,22.85
2022-12-11T18:03:04.162Z,23.21
2022-12-11T18:05:30.424Z,23.09
2022-12-11T18:07:58.123Z,22.49
2022-12-11T18:10:24.641Z,24.43
2022-12-11T18:12:50.889Z,24.46
2022-12-11T18:15:17.130Z,24.32
2022-12-11T18:17:43.393Z,24.64
2022-12-11T18:20:09.660Z,25.88
2022-12-11T18:22:35.914Z,25.70
2022-12-11T18:25:09.292Z,27.13
2022-12-11T18:27:36.000Z,27.12
2022-12-11T18:30:02.354Z,25.72
2022-12-11T18:32:28.610Z,26.04
2022-12-11T18:34:54.869Z,25.46
2022-12-11T18:37:26.214Z,25.32
2022-12-11T18:39:54.091Z,25.76
2022-12-11T18:42:35.639Z,26.38
2022-12-11T18:45:01.912Z,25.96
2022-12-11T18:47:28.173Z,26.18
2022-12-11T18:49:54.441Z,26.14
2022-12-11T18:52:20.700Z,27.07
2022-12-11T18:54:46.963Z,31.26
2022-12-11T18:57:13.233Z,36.21
2022-12-11T18:59:39.482Z,34.55
2022-12-11T19:02:05.920Z,33.52
2022-12-11T19:04:32.323Z,29.55
2022-12-11T19:06:58.583Z,27.54
2022-12-11T19:09:24.849Z,26.47
2022-12-11T19:11:51.098Z,25.33
2022-12-11T19:14:17.349Z,24.92
2022-12-11T19:16:43.606Z,25.14
2022-12-11T19:19:09.870Z,25.32
2022-12-11T19:21:36.115Z,25.59
2022-12-11T19:24:02.378Z,25.06
2022-12-11T19:26:28.641Z,24.65
2022-12-11T19:29:00.894Z,25.42
2022-12-11T19:31:27.197Z,24.88
2022-12-11T19:33:53.468Z,24.85
2022-12-11T19:36:19.725Z,25.06
2022-12-11T19:38:46.065Z,25.64
2022-12-11T19:41:12.324Z,24.59
2022-12-11T19:43:38.575Z,25.61
2022-12-11T19:46:04.819Z,26.07
2022-12-11T19:48:31.071Z,26.83
2022-12-11T19:50:57.311Z,26.44
2022-12-11T19:53:23.593Z,26.83
2022-12-11T19:55:49.858Z,26.09
2022-12-11T19:58:16.103Z,26.43
2022-12-11T20:00:42.388Z,26.38
2022-12-11T20:03:08.673Z,25.46
2022-12-11T20:05:34.953Z,26.39
2022-12-11T20:08:27.336Z,26.42
2022-12-11T20:10:47.422Z,26.85
2022-12-11T20:13:13.671Z,27.39
2022-12-11T20:15:39.931Z,26.99
2022-12-11T20:18:06.215Z,26.44
2022-12-11T20:20:32.463Z,25.91
2022-12-11T20:22:58.914Z,26.68
2022-12-11T20:25:25.174Z,27.74
2022-12-11T20:27:51.434Z,27.19
2022-12-11T20:30:17.677Z,26.50
2022-12-11T20:32:43.914Z,26.18
2022-12-11T20:35:10.474Z,26.40
2022-12-11T20:37:36.921Z,25.51
2022-12-11T20:40:03.193Z,25.46
2022-12-11T20:42:29.444Z,25.30
2022-12-11T20:44:55.705Z,25.96
2022-12-11T20:47:21.960Z,27.85
2022-12-11T20:49:48.221Z,26.86
2022-12-11T20:52:14.457Z,26.44
2022-12-11T20:54:40.710Z,26.56
2022-12-11T20:57:06.973Z,26.28
2022-12-11T20:59:33.230Z,26.24
2022-12-11T21:01:59.517Z,24.54
2022-12-11T21:04:25.837Z,24.94
2022-12-11T21:06:52.089Z,25.38
2022-12-11T21:09:18.325Z,24.57
2022-12-11T21:11:44.566Z,24.63
2022-12-11T21:14:10.830Z,24.60
2022-12-11T21:16:37.137Z,24.56
2022-12-11T21:19:03.443Z,24.55
2022-12-11T21:21:29.725Z,24.84
2022-12-11T21:23:55.983Z,23.55
2022-12-11T21:26:22.234Z,23.52
2022-12-11T21:28:48.488Z,23.81
2022-12-11T21:31:14.852Z,22.44
2022-12-11T21:33:41.167Z,22.84
2022-12-11T21:36:07.410Z,23.86
2022-12-11T21:38:33.666Z,23.43
2022-12-11T21:40:59.913Z,22.77
2022-12-11T21:43:26.155Z,23.12
2022-12-11T21:46:00.976Z,23.52
2022-12-11T21:48:27.895Z,23.49
2022-12-11T21:50:54.142Z,23.02
2022-12-11T21:53:20.386Z,26.35
2022-12-11T21:55:46.653Z,24.84
2022-12-11T21:58:12.913Z,23.76
2022-12-11T22:00:39.168Z,24.01
2022-12-11T22:03:05.415Z,24.02
2022-12-11T22:05:31.685Z,24.83
2022-12-11T22:07:58.012Z,25.19
2022-12-11T22:10:24.317Z,25.02
2022-12-11T22:12:50.582Z,26.76
2022-12-11T22:15:16.838Z,29.06
2022-12-11T22:17:43.086Z,26.79
2022-12-11T22:20:09.330Z,27.07
2022-12-11T22:22:35.577Z,25.83
2022-12-11T22:25:01.840Z,25.73
2022-12-11T22:27:28.097Z,25.59
2022-12-11T22:29:54.366Z,26.97
2022-12-11T22:32:20.611Z,26.30
2022-12-11T22:34:46.975Z,25.52
2022-12-11T22:37:13.217Z,28.39
2022-12-11T22:39:39.476Z,30.05
2022-12-11T22:42:05.731Z,27.07
2022-12-11T22:44:31.985Z,30.21
2022-12-11T22:46:58.238Z,28.91
2022-12-11T22:49:24.617Z,26.26
2022-12-11T22:51:50.878Z,25.78
2022-12-11T22:54:17.129Z,26.36
2022-12-11T22:56:43.403Z,26.11
2022-12-11T22:59:09.650Z,25.76
2022-12-11T23:01:35.897Z,26.71
2022-12-11T23:04:02.168Z,26.39
2022-12-11T23:06:28.427Z,27.20
2022-12-11T23:08:54.745Z,26.11
2022-12-11T23:11:21.020Z,29.62
2022-12-11T23:13:47.288Z,31.27
2022-12-11T23:16:13.550Z,29.46
2022-12-11T23:18:40.897Z,28.81
2022-12-11T23:21:07.176Z,28.33
2022-12-11T23:23:33.435Z,28.82
2022-12-11T23:25:59.678Z,26.67
2022-12-11T23:28:25.920Z,25.54
2022-12-11T23:30:52.255Z,27.18
2022-12-11T23:33:18.546Z,26.96
2022-12-11T23:35:44.790Z,26.53
2022-12-11T23:38:11.060Z,25.96
2022-12-11T23:40:37.407Z,26.00
2022-12-11T23:43:03.668Z,25.59
2022-12-11T23:45:29.906Z,25.98
2022-12-11T23:47:56.150Z,25.95
2022-12-11T23:50:22.456Z,26.37
2022-12-11T23:52:48.744Z,26.50
2022-12-11T23:55:15.150Z,27.24
2022-12-11T23:57:41.504Z,27.43
